sensor_id;sensor_type;location;lat;lon;timestamp;P1;durP1;ratioP1;P2;durP2;ratioP2
18364;SDS011;9309;52.126;11.616;2023-04-01T00:00:22;2.90;;;2.50;;
18364;SDS011;9309;52.126;11.616;2023-04-01T00:02:49;4.83;;;3.03;;
18364;SDS011;9309;52.126;11.616;2023-04-01T00:05:16;4.90;;;2.90;;
18364;SDS011;9309;52.126;11.616;2023-04-01T00:07:42;6.40;;;2.57;;
18364;SDS011;9309;52.126;11.616;2023-04-01T00:10:10;3.53;;;2.63;;
18364;SDS011;9309;52.126;11.616;2023-04-01T00:12:38;3.90;;;2.87;;
18364;SDS011;9309;52.126;11.616;2023-04-01T00:15:07;2.63;;;2.30;;
18364;SDS011;9309;52.126;11.616;2023-04-01T00:17:35;2.93;;;2.70;;
18364;SDS011;9309;52.126;11.616;2023-04-01T00:20:02;6.83;;;3.13;;
18364;SDS011;9309;52.126;11.616;2023-04-01T00:22:29;3.07;;;2.40;;
18364;SDS011;9309;52.126;11.616;2023-04-01T00:24:56;3.67;;;2.70;;
18364;SDS011;9309;52.126;11.616;2023-04-01T00:27:23;3.03;;;2.70;;
18364;SDS011;9309;52.126;11.616;2023-04-01T00:29:49;5.00;;;2.73;;
18364;SDS011;9309;52.126;11.616;2023-04-01T00:32:17;4.47;;;3.13;;
18364;SDS011;9309;52.126;11.616;2023-04-01T00:34:44;5.30;;;2.50;;
18364;SDS011;9309;52.126;11.616;2023-04-01T00:37:11;4.50;;;2.40;;
18364;SDS011;9309;52.126;11.616;2023-04-01T00:39:38;5.73;;;3.07;;
18364;SDS011;9309;52.126;11.616;2023-04-01T00:42:04;4.13;;;2.50;;
18364;SDS011;9309;52.126;11.616;2023-04-01T00:44:32;4.70;;;2.90;;
18364;SDS011;9309;52.126;11.616;2023-04-01T00:47:00;2.90;;;2.40;;
18364;SDS011;9309;52.126;11.616;2023-04-01T00:49:29;10.90;;;3.20;;
18364;SDS011;9309;52.126;11.616;2023-04-01T00:51:58;4.87;;;3.07;;
18364;SDS011;9309;52.126;11.616;2023-04-01T00:54:28;6.63;;;3.00;;
18364;SDS011;9309;52.126;11.616;2023-04-01T00:56:56;3.27;;;2.80;;
18364;SDS011;9309;52.126;11.616;2023-04-01T00:59:26;3.00;;;2.60;;
18364;SDS011;9309;52.126;11.616;2023-04-01T01:01:55;7.70;;;3.17;;
18364;SDS011;9309;52.126;11.616;2023-04-01T01:04:23;6.00;;;3.60;;
18364;SDS011;9309;52.126;11.616;2023-04-01T01:06:54;4.20;;;3.30;;
18364;SDS011;9309;52.126;11.616;2023-04-01T01:09:29;4.47;;;3.13;;
18364;SDS011;9309;52.126;11.616;2023-04-01T01:12:01;7.03;;;3.30;;
18364;SDS011;9309;52.126;11.616;2023-04-01T01:14:36;3.50;;;3.20;;
18364;SDS011;9309;52.126;11.616;2023-04-01T01:17:12;5.93;;;2.83;;
18364;SDS011;9309;52.126;11.616;2023-04-01T01:19:49;4.30;;;3.00;;
18364;SDS011;9309;52.126;11.616;2023-04-01T01:22:37;5.27;;;3.30;;
18364;SDS011;9309;52.126;11.616;2023-04-01T01:25:20;3.50;;;3.20;;
18364;SDS011;9309;52.126;11.616;2023-04-01T01:27:58;10.13;;;3.57;;
18364;SDS011;9309;52.126;11.616;2023-04-01T01:30:41;4.40;;;3.63;;
18364;SDS011;9309;52.126;11.616;2023-04-01T01:36:12;5.00;;;3.00;;
18364;SDS011;9309;52.126;11.616;2023-04-01T01:38:40;3.27;;;2.97;;
18364;SDS011;9309;52.126;11.616;2023-04-01T01:41:07;6.20;;;3.10;;
18364;SDS011;9309;52.126;11.616;2023-04-01T01:43:36;6.43;;;3.10;;
18364;SDS011;9309;52.126;11.616;2023-04-01T01:46:07;11.93;;;3.70;;
18364;SDS011;9309;52.126;11.616;2023-04-01T01:48:37;4.43;;;3.07;;
18364;SDS011;9309;52.126;11.616;2023-04-01T01:51:06;5.20;;;3.10;;
18364;SDS011;9309;52.126;11.616;2023-04-01T01:53:35;11.00;;;4.27;;
18364;SDS011;9309;52.126;11.616;2023-04-01T01:56:02;5.27;;;3.27;;
18364;SDS011;9309;52.126;11.616;2023-04-01T01:58:35;5.63;;;3.23;;
18364;SDS011;9309;52.126;11.616;2023-04-01T02:01:09;5.97;;;3.57;;
18364;SDS011;9309;52.126;11.616;2023-04-01T02:03:41;5.53;;;3.40;;
18364;SDS011;9309;52.126;11.616;2023-04-01T02:06:11;10.03;;;3.97;;
18364;SDS011;9309;52.126;11.616;2023-04-01T02:08:43;6.10;;;3.80;;
18364;SDS011;9309;52.126;11.616;2023-04-01T02:11:15;6.07;;;3.60;;
18364;SDS011;9309;52.126;11.616;2023-04-01T02:13:47;11.17;;;4.30;;
18364;SDS011;9309;52.126;11.616;2023-04-01T02:16:20;6.90;;;4.40;;
18364;SDS011;9309;52.126;11.616;2023-04-01T02:18:50;9.50;;;4.10;;
18364;SDS011;9309;52.126;11.616;2023-04-01T02:21:20;4.50;;;4.10;;
18364;SDS011;9309;52.126;11.616;2023-04-01T02:23:52;7.60;;;5.20;;
18364;SDS011;9309;52.126;11.616;2023-04-01T02:26:19;8.37;;;4.30;;
18364;SDS011;9309;52.126;11.616;2023-04-01T02:28:48;7.90;;;3.90;;
18364;SDS011;9309;52.126;11.616;2023-04-01T02:31:16;8.40;;;4.13;;
18364;SDS011;9309;52.126;11.616;2023-04-01T02:33:44;6.13;;;3.77;;
18364;SDS011;9309;52.126;11.616;2023-04-01T02:36:12;7.27;;;3.77;;
18364;SDS011;9309;52.126;11.616;2023-04-01T02:38:40;6.63;;;3.87;;
18364;SDS011;9309;52.126;11.616;2023-04-01T02:41:11;7.63;;;3.90;;
18364;SDS011;9309;52.126;11.616;2023-04-01T02:43:38;7.83;;;4.10;;
18364;SDS011;9309;52.126;11.616;2023-04-01T02:46:04;4.50;;;4.20;;
18364;SDS011;9309;52.126;11.616;2023-04-01T02:48:32;6.13;;;4.60;;
18364;SDS011;9309;52.126;11.616;2023-04-01T02:50:59;8.57;;;4.20;;
18364;SDS011;9309;52.126;11.616;2023-04-01T02:53:26;5.20;;;4.10;;
18364;SDS011;9309;52.126;11.616;2023-04-01T02:55:52;4.40;;;3.80;;
18364;SDS011;9309;52.126;11.616;2023-04-01T03:20:21;8.13;;;4.57;;
18364;SDS011;9309;52.126;11.616;2023-04-01T03:22:48;11.80;;;4.87;;
18364;SDS011;9309;52.126;11.616;2023-04-01T03:25:15;8.67;;;5.10;;
18364;SDS011;9309;52.126;11.616;2023-04-01T03:27:42;9.10;;;4.67;;
18364;SDS011;9309;52.126;11.616;2023-04-01T03:30:09;11.20;;;5.50;;
18364;SDS011;9309;52.126;11.616;2023-04-01T03:32:45;5.70;;;5.17;;
18364;SDS011;9309;52.126;11.616;2023-04-01T03:35:12;12.03;;;5.23;;
18364;SDS011;9309;52.126;11.616;2023-04-01T03:37:39;8.10;;;4.93;;
18364;SDS011;9309;52.126;11.616;2023-04-01T03:40:06;11.53;;;5.10;;
18364;SDS011;9309;52.126;11.616;2023-04-01T03:42:33;7.27;;;5.00;;
18364;SDS011;9309;52.126;11.616;2023-04-01T03:45:00;12.50;;;4.50;;
18364;SDS011;9309;52.126;11.616;2023-04-01T03:47:28;10.20;;;4.77;;
18364;SDS011;9309;52.126;11.616;2023-04-01T03:49:56;9.30;;;5.33;;
18364;SDS011;9309;52.126;11.616;2023-04-01T03:52:24;9.67;;;4.80;;
18364;SDS011;9309;52.126;11.616;2023-04-01T03:54:51;8.33;;;5.17;;
18364;SDS011;9309;52.126;11.616;2023-04-01T03:57:18;11.17;;;5.40;;
18364;SDS011;9309;52.126;11.616;2023-04-01T03:59:45;13.40;;;5.07;;
18364;SDS011;9309;52.126;11.616;2023-04-01T04:02:11;9.37;;;4.57;;
18364;SDS011;9309;52.126;11.616;2023-04-01T04:04:40;7.80;;;5.37;;
18364;SDS011;9309;52.126;11.616;2023-04-01T04:07:09;12.57;;;5.37;;
18364;SDS011;9309;52.126;11.616;2023-04-01T04:09:54;9.67;;;5.43;;
18364;SDS011;9309;52.126;11.616;2023-04-01T04:24:37;8.83;;;5.37;;
18364;SDS011;9309;52.126;11.616;2023-04-01T04:27:08;8.13;;;4.50;;
18364;SDS011;9309;52.126;11.616;2023-04-01T04:29:41;7.53;;;4.90;;
18364;SDS011;9309;52.126;11.616;2023-04-01T05:19:12;6.53;;;5.20;;
18364;SDS011;9309;52.126;11.616;2023-04-01T05:21:39;5.73;;;5.10;;
18364;SDS011;9309;52.126;11.616;2023-04-01T05:24:07;13.10;;;5.50;;
18364;SDS011;9309;52.126;11.616;2023-04-01T05:26:34;9.57;;;5.13;;
18364;SDS011;9309;52.126;11.616;2023-04-01T05:29:02;8.63;;;5.07;;
18364;SDS011;9309;52.126;11.616;2023-04-01T05:31:30;9.37;;;5.20;;
18364;SDS011;9309;52.126;11.616;2023-04-01T05:33:57;10.47;;;5.70;;
18364;SDS011;9309;52.126;11.616;2023-04-01T05:36:24;6.57;;;4.93;;
18364;SDS011;9309;52.126;11.616;2023-04-01T05:38:50;7.80;;;5.10;;
18364;SDS011;9309;52.126;11.616;2023-04-01T05:41:21;10.50;;;5.33;;
18364;SDS011;9309;52.126;11.616;2023-04-01T05:43:48;7.13;;;5.23;;
18364;SDS011;9309;52.126;11.616;2023-04-01T05:46:35;6.77;;;5.07;;
18364;SDS011;9309;52.126;11.616;2023-04-01T05:49:09;10.17;;;5.23;;
18364;SDS011;9309;52.126;11.616;2023-04-01T05:51:36;6.67;;;4.73;;
18364;SDS011;9309;52.126;11.616;2023-04-01T05:54:03;8.30;;;4.60;;
18364;SDS011;9309;52.126;11.616;2023-04-01T05:56:30;9.30;;;4.93;;
18364;SDS011;9309;52.126;11.616;2023-04-01T05:58:58;6.80;;;4.70;;
18364;SDS011;9309;52.126;11.616;2023-04-01T06:01:25;5.63;;;4.77;;
18364;SDS011;9309;52.126;11.616;2023-04-01T06:03:53;5.10;;;4.60;;
18364;SDS011;9309;52.126;11.616;2023-04-01T06:06:22;6.93;;;5.37;;
18364;SDS011;9309;52.126;11.616;2023-04-01T06:08:51;11.33;;;4.90;;
18364;SDS011;9309;52.126;11.616;2023-04-01T06:11:21;6.77;;;5.37;;
18364;SDS011;9309;52.126;11.616;2023-04-01T06:13:56;7.27;;;4.20;;
18364;SDS011;9309;52.126;11.616;2023-04-01T06:16:42;7.53;;;5.20;;
18364;SDS011;9309;52.126;11.616;2023-04-01T06:19:23;6.97;;;4.30;;
18364;SDS011;9309;52.126;11.616;2023-04-01T06:22:07;11.23;;;4.70;;
18364;SDS011;9309;52.126;11.616;2023-04-01T06:25:00;7.90;;;4.30;;
18364;SDS011;9309;52.126;11.616;2023-04-01T06:27:49;7.53;;;4.77;;
18364;SDS011;9309;52.126;11.616;2023-04-01T06:30:38;6.27;;;4.50;;
18364;SDS011;9309;52.126;11.616;2023-04-01T06:36:16;7.10;;;4.60;;
18364;SDS011;9309;52.126;11.616;2023-04-01T06:39:15;9.77;;;4.70;;
18364;SDS011;9309;52.126;11.616;2023-04-01T06:44:58;10.00;;;4.13;;
18364;SDS011;9309;52.126;11.616;2023-04-01T06:48:00;9.20;;;4.20;;
18364;SDS011;9309;52.126;11.616;2023-04-01T06:50:58;13.17;;;5.43;;
18364;SDS011;9309;52.126;11.616;2023-04-01T06:53:55;4.57;;;4.13;;
18364;SDS011;9309;52.126;11.616;2023-04-01T06:56:48;8.30;;;3.93;;
18364;SDS011;9309;52.126;11.616;2023-04-01T06:59:22;8.13;;;4.07;;
18364;SDS011;9309;52.126;11.616;2023-04-01T07:01:52;10.80;;;3.90;;
18364;SDS011;9309;52.126;11.616;2023-04-01T07:04:22;7.83;;;3.67;;
18364;SDS011;9309;52.126;11.616;2023-04-01T07:06:53;4.70;;;4.17;;
18364;SDS011;9309;52.126;11.616;2023-04-01T07:09:25;4.20;;;3.90;;
18364;SDS011;9309;52.126;11.616;2023-04-01T07:12:18;6.80;;;3.70;;
18364;SDS011;9309;52.126;11.616;2023-04-01T07:15:19;4.60;;;3.53;;
18364;SDS011;9309;52.126;11.616;2023-04-01T07:17:50;5.87;;;3.60;;
18364;SDS011;9309;52.126;11.616;2023-04-01T07:20:23;4.20;;;3.33;;
18364;SDS011;9309;52.126;11.616;2023-04-01T07:22:52;4.50;;;3.20;;
18364;SDS011;9309;52.126;11.616;2023-04-01T07:25:28;5.77;;;3.50;;
18364;SDS011;9309;52.126;11.616;2023-04-01T07:28:30;6.50;;;3.70;;
18364;SDS011;9309;52.126;11.616;2023-04-01T07:31:07;3.57;;;3.27;;
18364;SDS011;9309;52.126;11.616;2023-04-01T07:33:43;5.57;;;3.33;;
18364;SDS011;9309;52.126;11.616;2023-04-01T07:36:17;4.13;;;3.30;;
18364;SDS011;9309;52.126;11.616;2023-04-01T07:38:49;4.67;;;3.17;;
18364;SDS011;9309;52.126;11.616;2023-04-01T07:41:48;3.50;;;2.90;;
18364;SDS011;9309;52.126;11.616;2023-04-01T07:44:22;7.13;;;3.20;;
18364;SDS011;9309;52.126;11.616;2023-04-01T07:47:01;3.63;;;3.10;;
18364;SDS011;9309;52.126;11.616;2023-04-01T07:49:40;3.30;;;3.00;;
18364;SDS011;9309;52.126;11.616;2023-04-01T07:52:17;4.63;;;3.47;;
18364;SDS011;9309;52.126;11.616;2023-04-01T07:54:57;5.77;;;2.93;;
18364;SDS011;9309;52.126;11.616;2023-04-01T07:57:33;4.60;;;2.93;;
18364;SDS011;9309;52.126;11.616;2023-04-01T08:00:07;6.27;;;3.30;;
18364;SDS011;9309;52.126;11.616;2023-04-01T08:02:44;2.93;;;2.40;;
18364;SDS011;9309;52.126;11.616;2023-04-01T08:05:26;8.80;;;2.80;;
18364;SDS011;9309;52.126;11.616;2023-04-01T08:07:59;8.53;;;2.60;;
18364;SDS011;9309;52.126;11.616;2023-04-01T08:10:51;3.30;;;3.00;;
18364;SDS011;9309;52.126;11.616;2023-04-01T08:13:43;2.87;;;2.73;;
18364;SDS011;9309;52.126;11.616;2023-04-01T08:16:55;4.10;;;2.97;;
18364;SDS011;9309;52.126;11.616;2023-04-01T08:19:43;3.00;;;2.80;;
18364;SDS011;9309;52.126;11.616;2023-04-01T08:22:22;2.50;;;2.30;;
18364;SDS011;9309;52.126;11.616;2023-04-01T08:24:55;3.13;;;2.57;;
18364;SDS011;9309;52.126;11.616;2023-04-01T08:27:28;2.47;;;2.27;;
18364;SDS011;9309;52.126;11.616;2023-04-01T08:30:01;2.33;;;2.23;;
18364;SDS011;9309;52.126;11.616;2023-04-01T08:32:35;4.20;;;2.00;;
18364;SDS011;9309;52.126;11.616;2023-04-01T08:35:07;3.43;;;2.20;;
18364;SDS011;9309;52.126;11.616;2023-04-01T08:37:40;2.93;;;1.80;;
18364;SDS011;9309;52.126;11.616;2023-04-01T08:40:17;6.97;;;2.07;;
18364;SDS011;9309;52.126;11.616;2023-04-01T08:43:12;2.57;;;1.70;;
18364;SDS011;9309;52.126;11.616;2023-04-01T08:45:50;2.33;;;2.10;;
18364;SDS011;9309;52.126;11.616;2023-04-01T08:48:42;3.23;;;2.27;;
18364;SDS011;9309;52.126;11.616;2023-04-01T08:51:26;2.60;;;2.20;;
18364;SDS011;9309;52.126;11.616;2023-04-01T08:54:19;2.03;;;1.93;;
18364;SDS011;9309;52.126;11.616;2023-04-01T08:57:13;3.00;;;2.20;;
18364;SDS011;9309;52.126;11.616;2023-04-01T09:00:10;2.03;;;1.80;;
18364;SDS011;9309;52.126;11.616;2023-04-01T09:03:17;2.80;;;1.83;;
18364;SDS011;9309;52.126;11.616;2023-04-01T09:08:54;6.07;;;1.90;;
18364;SDS011;9309;52.126;11.616;2023-04-01T09:11:40;3.83;;;2.17;;
18364;SDS011;9309;52.126;11.616;2023-04-01T09:14:34;6.50;;;1.90;;
18364;SDS011;9309;52.126;11.616;2023-04-01T09:17:30;2.47;;;1.87;;
18364;SDS011;9309;52.126;11.616;2023-04-01T09:20:26;1.80;;;1.70;;
18364;SDS011;9309;52.126;11.616;2023-04-01T09:23:15;3.37;;;1.87;;
18364;SDS011;9309;52.126;11.616;2023-04-01T09:25:55;1.80;;;1.70;;
18364;SDS011;9309;52.126;11.616;2023-04-01T09:28:28;4.37;;;1.80;;
18364;SDS011;9309;52.126;11.616;2023-04-01T09:31:17;2.30;;;1.80;;
18364;SDS011;9309;52.126;11.616;2023-04-01T09:34:23;2.13;;;1.67;;
18364;SDS011;9309;52.126;11.616;2023-04-01T09:37:06;2.03;;;1.70;;
18364;SDS011;9309;52.126;11.616;2023-04-01T09:39:45;2.90;;;2.33;;
18364;SDS011;9309;52.126;11.616;2023-04-01T09:42:34;1.93;;;1.63;;
18364;SDS011;9309;52.126;11.616;2023-04-01T09:45:28;1.63;;;1.40;;
18364;SDS011;9309;52.126;11.616;2023-04-01T09:48:06;2.03;;;1.50;;
18364;SDS011;9309;52.126;11.616;2023-04-01T09:50:47;1.60;;;1.60;;
18364;SDS011;9309;52.126;11.616;2023-04-01T09:53:28;1.70;;;1.60;;
18364;SDS011;9309;52.126;11.616;2023-04-01T09:56:14;4.23;;;1.73;;
18364;SDS011;9309;52.126;11.616;2023-04-01T10:05:52;1.50;;;1.50;;
18364;SDS011;9309;52.126;11.616;2023-04-01T10:08:39;2.97;;;1.80;;
18364;SDS011;9309;52.126;11.616;2023-04-01T10:11:31;3.33;;;2.07;;
18364;SDS011;9309;52.126;11.616;2023-04-01T10:14:35;1.53;;;1.40;;
18364;SDS011;9309;52.126;11.616;2023-04-01T10:17:25;1.50;;;1.40;;
18364;SDS011;9309;52.126;11.616;2023-04-01T10:20:21;1.80;;;1.60;;
18364;SDS011;9309;52.126;11.616;2023-04-01T10:23:07;1.70;;;1.60;;
18364;SDS011;9309;52.126;11.616;2023-04-01T10:29:37;1.37;;;1.27;;
18364;SDS011;9309;52.126;11.616;2023-04-01T10:32:32;2.53;;;1.37;;
18364;SDS011;9309;52.126;11.616;2023-04-01T10:35:25;1.77;;;1.60;;
18364;SDS011;9309;52.126;11.616;2023-04-01T10:38:26;5.93;;;1.67;;
18364;SDS011;9309;52.126;11.616;2023-04-01T10:41:15;2.83;;;1.40;;
18364;SDS011;9309;52.126;11.616;2023-04-01T10:47:49;2.67;;;1.50;;
18364;SDS011;9309;52.126;11.616;2023-04-01T10:51:04;4.20;;;1.60;;
18364;SDS011;9309;52.126;11.616;2023-04-01T10:53:45;3.03;;;1.53;;
18364;SDS011;9309;52.126;11.616;2023-04-01T10:56:47;1.90;;;1.50;;
18364;SDS011;9309;52.126;11.616;2023-04-01T11:00:03;1.70;;;1.40;;
18364;SDS011;9309;52.126;11.616;2023-04-01T11:03:23;1.60;;;1.53;;
18364;SDS011;9309;52.126;11.616;2023-04-01T11:06:53;1.90;;;1.80;;
18364;SDS011;9309;52.126;11.616;2023-04-01T11:13:20;1.40;;;1.40;;
18364;SDS011;9309;52.126;11.616;2023-04-01T11:16:20;1.40;;;1.40;;
18364;SDS011;9309;52.126;11.616;2023-04-01T11:25:17;1.27;;;1.27;;
18364;SDS011;9309;52.126;11.616;2023-04-01T11:28:32;6.10;;;1.47;;
18364;SDS011;9309;52.126;11.616;2023-04-01T11:31:31;1.43;;;1.33;;
18364;SDS011;9309;52.126;11.616;2023-04-01T11:34:07;1.90;;;1.30;;
18364;SDS011;9309;52.126;11.616;2023-04-01T11:36:44;1.30;;;1.30;;
18364;SDS011;9309;52.126;11.616;2023-04-01T11:39:24;1.30;;;1.30;;
18364;SDS011;9309;52.126;11.616;2023-04-01T11:42:03;1.67;;;1.30;;
18364;SDS011;9309;52.126;11.616;2023-04-01T11:45:07;1.50;;;1.40;;
18364;SDS011;9309;52.126;11.616;2023-04-01T11:47:54;1.57;;;1.47;;
18364;SDS011;9309;52.126;11.616;2023-04-01T11:50:32;2.83;;;1.50;;
18364;SDS011;9309;52.126;11.616;2023-04-01T11:53:14;1.40;;;1.40;;
18364;SDS011;9309;52.126;11.616;2023-04-01T11:55:54;1.80;;;1.37;;
18364;SDS011;9309;52.126;11.616;2023-04-01T11:58:40;4.03;;;1.70;;
18364;SDS011;9309;52.126;11.616;2023-04-01T12:01:34;1.50;;;1.37;;
18364;SDS011;9309;52.126;11.616;2023-04-01T12:04:19;2.60;;;1.43;;
18364;SDS011;9309;52.126;11.616;2023-04-01T12:07:06;3.93;;;2.23;;
18364;SDS011;9309;52.126;11.616;2023-04-01T12:09:44;3.57;;;1.60;;
18364;SDS011;9309;52.126;11.616;2023-04-01T12:12:20;1.40;;;1.30;;
18364;SDS011;9309;52.126;11.616;2023-04-01T12:14:59;2.03;;;1.67;;
18364;SDS011;9309;52.126;11.616;2023-04-01T12:17:36;1.50;;;1.40;;
18364;SDS011;9309;52.126;11.616;2023-04-01T12:20:21;1.73;;;1.20;;
18364;SDS011;9309;52.126;11.616;2023-04-01T12:22:58;1.27;;;1.27;;
18364;SDS011;9309;52.126;11.616;2023-04-01T12:25:52;1.10;;;1.10;;
18364;SDS011;9309;52.126;11.616;2023-04-01T12:28:37;3.00;;;1.20;;
18364;SDS011;9309;52.126;11.616;2023-04-01T12:31:19;1.03;;;1.03;;
18364;SDS011;9309;52.126;11.616;2023-04-01T12:36:59;1.00;;;1.00;;
18364;SDS011;9309;52.126;11.616;2023-04-01T12:39:35;1.13;;;0.90;;
18364;SDS011;9309;52.126;11.616;2023-04-01T12:42:33;1.00;;;1.00;;
18364;SDS011;9309;52.126;11.616;2023-04-01T12:45:27;1.00;;;0.90;;
18364;SDS011;9309;52.126;11.616;2023-04-01T12:48:00;0.90;;;0.90;;
18364;SDS011;9309;52.126;11.616;2023-04-01T12:50:42;0.93;;;0.93;;
18364;SDS011;9309;52.126;11.616;2023-04-01T12:53:28;4.97;;;3.20;;
18364;SDS011;9309;52.126;11.616;2023-04-01T12:56:12;9.03;;;5.23;;
18364;SDS011;9309;52.126;11.616;2023-04-01T12:58:56;1.50;;;1.40;;
18364;SDS011;9309;52.126;11.616;2023-04-01T13:01:51;1.87;;;1.10;;
18364;SDS011;9309;52.126;11.616;2023-04-01T13:04:31;1.00;;;1.00;;
18364;SDS011;9309;52.126;11.616;2023-04-01T13:10:05;1.60;;;1.13;;
18364;SDS011;9309;52.126;11.616;2023-04-01T13:12:49;1.73;;;1.20;;
18364;SDS011;9309;52.126;11.616;2023-04-01T13:15:27;0.97;;;0.97;;
18364;SDS011;9309;52.126;11.616;2023-04-01T13:18:00;1.90;;;1.03;;
18364;SDS011;9309;52.126;11.616;2023-04-01T13:20:41;1.07;;;1.07;;
18364;SDS011;9309;52.126;11.616;2023-04-01T13:23:16;0.80;;;0.80;;
18364;SDS011;9309;52.126;11.616;2023-04-01T13:26:01;1.03;;;1.03;;
18364;SDS011;9309;52.126;11.616;2023-04-01T13:28:38;10.63;;;2.50;;
18364;SDS011;9309;52.126;11.616;2023-04-01T13:31:08;1.00;;;1.00;;
18364;SDS011;9309;52.126;11.616;2023-04-01T13:33:47;1.53;;;1.37;;
18364;SDS011;9309;52.126;11.616;2023-04-01T13:36:23;1.93;;;1.20;;
18364;SDS011;9309;52.126;11.616;2023-04-01T13:39:05;1.40;;;1.30;;
18364;SDS011;9309;52.126;11.616;2023-04-01T13:41:47;1.80;;;1.40;;
18364;SDS011;9309;52.126;11.616;2023-04-01T13:44:26;1.50;;;1.50;;
18364;SDS011;9309;52.126;11.616;2023-04-01T13:47:05;2.67;;;1.63;;
18364;SDS011;9309;52.126;11.616;2023-04-01T13:49:41;1.20;;;1.20;;
18364;SDS011;9309;52.126;11.616;2023-04-01T13:52:31;1.93;;;1.30;;
18364;SDS011;9309;52.126;11.616;2023-04-01T13:55:32;10.63;;;3.07;;
18364;SDS011;9309;52.126;11.616;2023-04-01T14:01:06;2.43;;;2.23;;
18364;SDS011;9309;52.126;11.616;2023-04-01T14:03:42;3.30;;;3.10;;
18364;SDS011;9309;52.126;11.616;2023-04-01T14:06:28;1.93;;;1.93;;
18364;SDS011;9309;52.126;11.616;2023-04-01T14:12:13;2.10;;;2.10;;
18364;SDS011;9309;52.126;11.616;2023-04-01T14:14:56;2.73;;;2.63;;
18364;SDS011;9309;52.126;11.616;2023-04-01T14:17:42;3.20;;;3.10;;
18364;SDS011;9309;52.126;11.616;2023-04-01T14:20:22;16.37;;;6.87;;
18364;SDS011;9309;52.126;11.616;2023-04-01T14:22:56;3.50;;;3.40;;
18364;SDS011;9309;52.126;11.616;2023-04-01T14:25:53;3.40;;;3.20;;
18364;SDS011;9309;52.126;11.616;2023-04-01T14:28:29;4.20;;;3.80;;
18364;SDS011;9309;52.126;11.616;2023-04-01T14:31:09;4.57;;;4.27;;
18364;SDS011;9309;52.126;11.616;2023-04-01T14:33:48;4.43;;;4.13;;
18364;SDS011;9309;52.126;11.616;2023-04-01T14:36:29;4.13;;;3.93;;
18364;SDS011;9309;52.126;11.616;2023-04-01T14:39:15;5.03;;;4.57;;
18364;SDS011;9309;52.126;11.616;2023-04-01T14:41:56;5.40;;;5.00;;
18364;SDS011;9309;52.126;11.616;2023-04-01T14:44:38;6.33;;;5.80;;
18364;SDS011;9309;52.126;11.616;2023-04-01T14:47:39;9.47;;;7.30;;
18364;SDS011;9309;52.126;11.616;2023-04-01T14:50:12;6.80;;;6.20;;
18364;SDS011;9309;52.126;11.616;2023-04-01T14:52:43;6.63;;;6.03;;
18364;SDS011;9309;52.126;11.616;2023-04-01T14:55:19;5.40;;;5.10;;
18364;SDS011;9309;52.126;11.616;2023-04-01T15:00:41;5.00;;;4.70;;
18364;SDS011;9309;52.126;11.616;2023-04-01T15:03:19;4.90;;;4.50;;
18364;SDS011;9309;52.126;11.616;2023-04-01T15:05:51;6.90;;;5.07;;
18364;SDS011;9309;52.126;11.616;2023-04-01T15:08:22;4.97;;;4.67;;
18364;SDS011;9309;52.126;11.616;2023-04-01T15:10:53;6.27;;;5.63;;
18364;SDS011;9309;52.126;11.616;2023-04-01T15:13:40;7.87;;;6.50;;
18364;SDS011;9309;52.126;11.616;2023-04-01T15:16:18;10.10;;;8.10;;
18364;SDS011;9309;52.126;11.616;2023-04-01T15:18:53;10.70;;;8.70;;
18364;SDS011;9309;52.126;11.616;2023-04-01T15:21:31;12.43;;;9.33;;
18364;SDS011;9309;52.126;11.616;2023-04-01T15:24:11;16.10;;;10.70;;
18364;SDS011;9309;52.126;11.616;2023-04-01T15:26:47;16.33;;;11.33;;
18364;SDS011;9309;52.126;11.616;2023-04-01T15:29:30;21.00;;;13.03;;
18364;SDS011;9309;52.126;11.616;2023-04-01T15:32:10;17.30;;;12.57;;
18364;SDS011;9309;52.126;11.616;2023-04-01T15:34:45;16.80;;;11.43;;
18364;SDS011;9309;52.126;11.616;2023-04-01T15:37:19;15.13;;;11.00;;
18364;SDS011;9309;52.126;11.616;2023-04-01T15:39:57;15.37;;;10.30;;
18364;SDS011;9309;52.126;11.616;2023-04-01T15:42:34;9.63;;;8.63;;
18364;SDS011;9309;52.126;11.616;2023-04-01T15:45:16;10.70;;;9.10;;
18364;SDS011;9309;52.126;11.616;2023-04-01T15:48:01;9.10;;;7.87;;
18364;SDS011;9309;52.126;11.616;2023-04-01T15:50:37;9.90;;;7.87;;
18364;SDS011;9309;52.126;11.616;2023-04-01T15:53:23;9.40;;;7.80;;
18364;SDS011;9309;52.126;11.616;2023-04-01T15:58:57;7.13;;;6.53;;
18364;SDS011;9309;52.126;11.616;2023-04-01T16:01:34;7.90;;;7.20;;
18364;SDS011;9309;52.126;11.616;2023-04-01T16:04:17;8.07;;;6.73;;
18364;SDS011;9309;52.126;11.616;2023-04-01T16:07:20;6.60;;;5.97;;
18364;SDS011;9309;52.126;11.616;2023-04-01T16:09:59;7.00;;;5.97;;
18364;SDS011;9309;52.126;11.616;2023-04-01T16:12:42;6.07;;;5.57;;
18364;SDS011;9309;52.126;11.616;2023-04-01T16:15:21;6.20;;;5.63;;
18364;SDS011;9309;52.126;11.616;2023-04-01T16:17:58;5.40;;;5.10;;
18364;SDS011;9309;52.126;11.616;2023-04-01T16:20:40;5.93;;;5.43;;
18364;SDS011;9309;52.126;11.616;2023-04-01T16:23:15;5.90;;;5.50;;
18364;SDS011;9309;52.126;11.616;2023-04-01T16:25:49;5.73;;;5.33;;
18364;SDS011;9309;52.126;11.616;2023-04-01T16:28:25;5.27;;;4.87;;
18364;SDS011;9309;52.126;11.616;2023-04-01T16:30:57;5.40;;;5.00;;
18364;SDS011;9309;52.126;11.616;2023-04-01T16:33:32;4.90;;;4.60;;
18364;SDS011;9309;52.126;11.616;2023-04-01T16:36:08;5.70;;;5.20;;
18364;SDS011;9309;52.126;11.616;2023-04-01T16:38:42;5.50;;;5.10;;
18364;SDS011;9309;52.126;11.616;2023-04-01T16:41:16;4.57;;;4.37;;
18364;SDS011;9309;52.126;11.616;2023-04-01T16:43:48;4.80;;;4.47;;
18364;SDS011;9309;52.126;11.616;2023-04-01T16:46:25;5.00;;;4.60;;
18364;SDS011;9309;52.126;11.616;2023-04-01T16:48:58;5.20;;;4.90;;
18364;SDS011;9309;52.126;11.616;2023-04-01T16:51:40;5.03;;;4.60;;
18364;SDS011;9309;52.126;11.616;2023-04-01T16:54:16;5.30;;;4.90;;
18364;SDS011;9309;52.126;11.616;2023-04-01T16:56:54;5.77;;;5.37;;
18364;SDS011;9309;52.126;11.616;2023-04-01T16:59:22;5.30;;;4.90;;
18364;SDS011;9309;52.126;11.616;2023-04-01T17:01:53;7.00;;;6.30;;
18364;SDS011;9309;52.126;11.616;2023-04-01T17:04:30;6.37;;;5.80;;
18364;SDS011;9309;52.126;11.616;2023-04-01T17:07:05;6.57;;;6.07;;
18364;SDS011;9309;52.126;11.616;2023-04-01T17:09:50;6.03;;;5.60;;
18364;SDS011;9309;52.126;11.616;2023-04-01T17:12:35;5.40;;;5.03;;
18364;SDS011;9309;52.126;11.616;2023-04-01T17:15:11;7.63;;;5.70;;
18364;SDS011;9309;52.126;11.616;2023-04-01T17:17:48;5.63;;;5.17;;
18364;SDS011;9309;52.126;11.616;2023-04-01T17:20:42;6.07;;;5.53;;
18364;SDS011;9309;52.126;11.616;2023-04-01T17:23:14;5.80;;;5.40;;
18364;SDS011;9309;52.126;11.616;2023-04-01T17:25:50;5.33;;;4.93;;
18364;SDS011;9309;52.126;11.616;2023-04-01T17:28:29;6.43;;;5.83;;
18364;SDS011;9309;52.126;11.616;2023-04-01T17:31:05;5.97;;;5.47;;
18364;SDS011;9309;52.126;11.616;2023-04-01T17:33:42;5.37;;;5.07;;
18364;SDS011;9309;52.126;11.616;2023-04-01T17:36:25;5.90;;;5.50;;
18364;SDS011;9309;52.126;11.616;2023-04-01T17:42:06;4.73;;;4.47;;
18364;SDS011;9309;52.126;11.616;2023-04-01T17:44:41;5.30;;;4.67;;
18364;SDS011;9309;52.126;11.616;2023-04-01T17:47:21;6.43;;;4.83;;
18364;SDS011;9309;52.126;11.616;2023-04-01T17:50:13;4.70;;;4.30;;
18364;SDS011;9309;52.126;11.616;2023-04-01T17:52:48;4.87;;;4.57;;
18364;SDS011;9309;52.126;11.616;2023-04-01T17:58:31;6.27;;;5.77;;
18364;SDS011;9309;52.126;11.616;2023-04-01T18:01:09;5.20;;;4.80;;
18364;SDS011;9309;52.126;11.616;2023-04-01T18:03:54;5.80;;;5.40;;
18364;SDS011;9309;52.126;11.616;2023-04-01T18:06:29;5.30;;;5.00;;
18364;SDS011;9309;52.126;11.616;2023-04-01T18:09:04;5.73;;;5.13;;
18364;SDS011;9309;52.126;11.616;2023-04-01T18:11:44;4.80;;;4.50;;
18364;SDS011;9309;52.126;11.616;2023-04-01T18:14:26;5.63;;;5.13;;